Terminal Aerodrome Forecast
Issued by NWS Mt. Holly, NJ

Home | Current Version | Previous Version | Text Only | Print | Product List | Glossary On
Versions: 1 2 3 4 5 6 7 8 9 10 11 12 13
000
FTUS41 KPHI 271100
TAFRDG
TAF
KRDG 271129Z 2712/2812 VRB03KT P6SM SKC
     FM271600 23006KT P6SM SCT050
     FM272100 26006KT P6SM BKN050 PROB30 2800/2802 4SM -SHRA BR
      OVC030
     FM280300 31004KT P6SM BKN050
     FM280600 34006KT P6SM SCT050=

USA.gov is the U.S. government's official web portal to all federal, state and local government web resources and services.